Time;durP1;ratioP1;P1;durP2;ratioP2;P2;SDS_P1;SDS_P2;PMS_P1;PMS_P2;Temp;Humidity;BMP_temperature;BMP_pressure;BME280_temperature;BME280_humidity;BME280_pressure;Samples;Min_cycle;Max_cycle;Signal;HPM_P1;HPM_P2
2022/01/03 00:01:18;;;;;;;19.60;2.88;;;7.80;99.90;;;;;;5052811;28;20597;-67
2022/01/03 00:03:44;;;;;;;13.60;2.65;;;7.90;99.90;;;;;;5049572;28;20127;-67
2022/01/03 00:06:11;;;;;;;16.80;2.90;;;7.90;99.90;;;;;;5053447;28;20478;-67
2022/01/03 00:08:43;;;;;;;11.40;2.80;;;7.90;99.90;;;;;;5051840;28;20033;-67
2022/01/03 00:11:13;;;;;;;19.75;3.25;;;7.90;99.90;;;;;;5052018;28;20049;-67
2022/01/03 00:13:43;;;;;;;16.80;3.63;;;8.00;99.90;;;;;;5053299;28;20052;-67
2022/01/03 00:16:10;;;;;;;11.90;2.72;;;8.10;99.90;;;;;;5053403;28;20047;-67
2022/01/03 00:18:36;;;;;;;23.15;3.25;;;8.10;99.90;;;;;;5053388;28;20091;-68
2022/01/03 00:21:06;;;;;;;15.45;2.70;;;8.10;99.90;;;;;;5047315;28;20042;-67
2022/01/03 00:23:36;;;;;;;20.83;2.72;;;8.10;99.90;;;;;;5053436;28;20106;-67
2022/01/03 00:26:02;;;;;;;20.33;4.45;;;8.10;99.90;;;;;;5052689;28;20194;-67
2022/01/03 00:28:34;;;;;;;20.33;3.40;;;8.20;99.90;;;;;;5053453;28;20139;-68
2022/01/03 00:31:01;;;;;;;21.95;3.22;;;8.20;99.90;;;;;;5045910;28;20029;-67
2022/01/03 00:33:27;;;;;;;28.17;3.45;;;8.30;99.90;;;;;;5052503;28;20052;-68
2022/01/03 00:35:59;;;;;;;16.38;3.30;;;8.30;99.90;;;;;;5041344;28;20444;-68
2022/01/03 00:38:26;;;;;;;25.60;3.42;;;8.30;99.90;;;;;;5063752;28;20428;-67
2022/01/03 00:40:52;;;;;;;17.95;3.25;;;8.30;99.90;;;;;;5052043;28;20578;-68
2022/01/03 00:43:18;;;;;;;23.00;3.22;;;8.40;99.90;;;;;;5053404;28;20041;-67
2022/01/03 00:45:44;;;;;;;19.55;3.40;;;8.40;99.90;;;;;;5050590;28;20549;-68
2022/01/03 00:48:11;;;;;;;19.95;3.50;;;8.40;99.90;;;;;;5053664;28;20037;-67
2022/01/03 00:50:37;;;;;;;24.50;4.30;;;8.40;99.90;;;;;;5052540;28;20148;-68
2022/01/03 00:53:05;;;;;;;18.35;4.07;;;8.40;99.90;;;;;;5049240;28;20124;-67
2022/01/03 00:55:31;;;;;;;26.50;4.18;;;8.40;99.90;;;;;;5052486;28;20037;-68
2022/01/03 00:58:08;;;;;;;21.33;3.65;;;8.40;99.90;;;;;;5051405;28;20037;-67
2022/01/03 01:00:41;;;;;;;26.17;4.03;;;8.40;99.90;;;;;;5052996;28;20076;-67
2022/01/03 01:03:15;;;;;;;32.95;3.38;;;8.40;99.90;;;;;;5053020;28;20064;-67
2022/01/03 01:05:45;;;;;;;25.98;4.57;;;8.50;99.90;;;;;;5050914;28;20064;-68
2022/01/03 01:08:11;;;;;;;29.00;4.25;;;8.40;99.90;;;;;;5052290;28;20462;-67
2022/01/03 01:10:39;;;;;;;24.92;3.53;;;8.50;99.90;;;;;;5052240;28;20037;-67
2022/01/03 01:13:09;;;;;;;30.58;4.32;;;8.50;99.90;;;;;;5050362;28;20076;-67
2022/01/03 01:15:36;;;;;;;30.23;4.15;;;8.40;99.90;;;;;;5048006;28;20044;-67
2022/01/03 01:18:04;;;;;;;36.88;4.65;;;8.40;99.90;;;;;;5050445;28;20468;-67
2022/01/03 01:20:32;;;;;;;33.35;3.80;;;8.40;99.90;;;;;;5048263;28;20123;-67
2022/01/03 01:22:58;;;;;;;33.47;4.38;;;8.50;99.90;;;;;;5048818;28;20060;-68
2022/01/03 01:27:49;;;;;;;26.77;3.95;;;8.40;99.90;;;;;;5049185;28;20871;-67
2022/01/03 01:30:20;;;;;;;29.60;3.58;;;8.40;99.90;;;;;;5052423;28;20036;-67
2022/01/03 01:33:04;;;;;;;25.10;4.13;;;8.40;99.90;;;;;;5052308;28;20487;-68
2022/01/03 01:35:34;;;;;;;25.42;4.50;;;8.40;99.90;;;;;;5051769;28;20040;-68
2022/01/03 01:38:01;;;;;;;33.85;4.57;;;8.50;99.90;;;;;;5050629;28;20053;-67
2022/01/03 01:40:27;;;;;;;29.52;3.90;;;8.40;99.90;;;;;;5051943;28;20324;-67
2022/01/03 01:42:55;;;;;;;24.58;3.95;;;8.50;99.90;;;;;;5048655;28;20501;-68
2022/01/03 01:45:26;;;;;;;37.28;4.72;;;8.50;99.90;;;;;;5051620;28;20509;-67
2022/01/03 01:47:57;;;;;;;27.05;3.80;;;8.50;99.90;;;;;;5050387;28;20471;-67
2022/01/03 01:50:26;;;;;;;33.65;4.75;;;8.60;99.90;;;;;;5034127;28;20113;-68
2022/01/03 01:52:54;;;;;;;33.67;4.38;;;8.50;99.90;;;;;;5052021;28;20123;-67
2022/01/03 01:55:19;;;;;;;24.58;4.28;;;8.50;99.90;;;;;;5051676;28;20450;-66
2022/01/03 01:58:05;;;;;;;29.80;3.88;;;8.50;99.90;;;;;;5048572;28;20124;-67
2022/01/03 02:00:33;;;;;;;30.75;4.03;;;8.50;99.90;;;;;;5047744;28;20481;-67
2022/01/03 02:03:05;;;;;;;23.48;4.45;;;8.50;99.90;;;;;;5048239;28;20071;-66
2022/01/03 02:05:36;;;;;;;20.58;3.97;;;8.50;99.90;;;;;;5047044;28;20049;-67
2022/01/03 02:08:14;;;;;;;34.10;4.65;;;8.50;99.90;;;;;;5049988;28;20351;-67
2022/01/03 02:10:45;;;;;;;33.92;5.63;;;8.60;99.90;;;;;;5040997;28;20052;-67
2022/01/03 02:13:16;;;;;;;31.95;4.28;;;8.60;99.90;;;;;;5049754;28;20051;-67
2022/01/03 02:15:46;;;;;;;28.35;3.85;;;8.60;99.90;;;;;;5049595;28;21678;-66
2022/01/03 02:18:12;;;;;;;25.15;4.18;;;8.60;99.90;;;;;;5049444;28;20037;-67
2022/01/03 02:20:37;;;;;;;30.27;4.38;;;8.60;99.90;;;;;;5050266;28;20098;-67
2022/01/03 02:23:03;;;;;;;25.60;3.70;;;8.60;99.90;;;;;;5050677;28;20622;-67
2022/01/03 02:25:29;;;;;;;33.20;4.72;;;8.70;99.90;;;;;;5051019;28;20057;-67
2022/01/03 02:27:55;;;;;;;28.67;4.68;;;8.70;99.90;;;;;;5050476;28;20411;-67
2022/01/03 02:30:27;;;;;;;35.85;4.68;;;8.70;99.90;;;;;;5048728;28;20048;-67
2022/01/03 02:32:54;;;;;;;31.52;4.80;;;8.70;99.90;;;;;;5031397;28;20053;-67
2022/01/03 02:35:20;;;;;;;39.05;4.55;;;8.70;99.90;;;;;;5048635;28;20052;-68
2022/01/03 02:37:47;;;;;;;25.25;4.85;;;8.70;99.90;;;;;;5049930;28;20052;-67
2022/01/03 02:40:13;;;;;;;33.63;4.28;;;8.70;99.90;;;;;;5047203;28;20488;-68
2022/01/03 02:42:41;;;;;;;33.05;5.22;;;8.70;99.90;;;;;;5045425;28;20072;-67
2022/01/03 02:45:13;;;;;;;33.15;4.93;;;8.70;99.90;;;;;;5046806;28;20403;-68
2022/01/03 02:47:42;;;;;;;30.15;4.85;;;8.70;99.90;;;;;;5044883;28;20068;-67
2022/01/03 02:50:09;;;;;;;26.67;5.28;;;8.70;99.90;;;;;;5048710;28;20044;-68
2022/01/03 02:52:35;;;;;;;35.92;4.57;;;8.80;99.90;;;;;;5050608;28;20090;-67
2022/01/03 02:55:03;;;;;;;34.30;5.13;;;8.70;99.90;;;;;;5049040;28;20029;-68
2022/01/03 02:57:47;;;;;;;36.00;5.63;;;8.70;99.90;;;;;;5049753;28;20045;-68
2022/01/03 03:00:24;;;;;;;35.70;4.72;;;8.70;99.90;;;;;;5039545;28;20131;-68
2022/01/03 03:02:50;;;;;;;22.67;4.57;;;8.70;99.90;;;;;;5047468;28;20045;-67
2022/01/03 03:05:16;;;;;;;35.90;5.22;;;8.70;99.90;;;;;;5046546;28;20041;-67
2022/01/03 03:07:42;;;;;;;31.60;4.30;;;8.60;99.90;;;;;;5049074;28;20045;-68
2022/01/03 03:10:11;;;;;;;27.13;4.80;;;8.60;99.90;;;;;;5050053;28;20047;-67
2022/01/03 03:12:37;;;;;;;26.58;4.55;;;8.70;99.90;;;;;;5049817;28;20045;-67
2022/01/03 03:15:04;;;;;;;29.13;4.35;;;8.60;99.90;;;;;;5049365;28;20410;-67
2022/01/03 03:17:30;;;;;;;31.87;4.53;;;8.60;99.90;;;;;;5049692;28;20036;-67
2022/01/03 03:20:06;;;;;;;30.65;5.53;;;8.60;99.90;;;;;;5032022;28;20044;-67
2022/01/03 03:22:32;;;;;;;36.60;5.72;;;8.50;99.90;;;;;;5047460;28;20056;-65
2022/01/03 03:25:08;;;;;;;38.70;4.32;;;8.50;99.90;;;;;;5048172;28;20141;-67
2022/01/03 03:27:42;;;;;;;38.10;5.32;;;8.40;99.90;;;;;;5041094;28;20071;-67
2022/01/03 03:30:10;;;;;;;32.10;6.03;;;8.40;99.90;;;;;;5049956;28;20041;-67
2022/01/03 03:32:36;;;;;;;45.30;6.00;;;8.40;99.90;;;;;;5044405;28;20091;-68
2022/01/03 03:35:02;;;;;;;28.08;4.72;;;8.40;99.90;;;;;;5050425;28;20531;-67
2022/01/03 03:37:27;;;;;;;38.42;5.75;;;8.30;99.90;;;;;;5050763;28;20048;-67
2022/01/03 03:39:53;;;;;;;37.30;5.47;;;8.30;99.90;;;;;;5060585;28;20097;-68
2022/01/03 03:42:19;;;;;;;30.95;4.88;;;8.30;99.90;;;;;;5048987;28;20371;-67
2022/01/03 03:44:45;;;;;;;33.05;5.38;;;8.20;99.90;;;;;;5048943;28;20041;-67
2022/01/03 03:47:11;;;;;;;41.25;5.60;;;8.20;99.90;;;;;;5048262;28;20075;-67
2022/01/03 03:49:37;;;;;;;42.58;4.95;;;8.20;99.90;;;;;;5046796;28;20049;-67
2022/01/03 03:52:04;;;;;;;39.90;5.30;;;8.10;99.90;;;;;;5049032;28;20041;-67
2022/01/03 03:54:31;;;;;;;39.13;5.70;;;8.10;99.90;;;;;;5047456;28;20483;-68
2022/01/03 03:56:57;;;;;;;38.90;5.85;;;8.10;99.90;;;;;;5040193;28;20132;-68
2022/01/03 03:59:24;;;;;;;25.85;4.38;;;8.10;99.90;;;;;;5048246;28;20489;-68
2022/01/03 04:01:50;;;;;;;40.72;5.40;;;8.10;99.90;;;;;;5041440;28;20092;-68
2022/01/03 04:04:16;;;;;;;33.53;4.25;;;8.10;99.90;;;;;;5042184;28;20184;-67
2022/01/03 04:06:42;;;;;;;33.47;5.72;;;8.10;99.90;;;;;;5046944;28;20627;-68
2022/01/03 04:09:08;;;;;;;35.63;4.45;;;8.00;99.90;;;;;;5047874;28;20112;-68
2022/01/03 04:11:34;;;;;;;36.95;5.15;;;8.00;99.90;;;;;;5049151;28;20029;-68
2022/01/03 04:13:59;;;;;;;42.22;6.93;;;8.00;99.90;;;;;;5048497;28;20395;-68
2022/01/03 04:16:25;;;;;;;33.72;4.80;;;8.10;99.90;;;;;;5048444;28;20063;-68
2022/01/03 04:18:50;;;;;;;38.15;5.10;;;8.00;99.90;;;;;;5048913;28;20056;-67
2022/01/03 04:21:16;;;;;;;38.90;5.32;;;8.00;99.90;;;;;;5048329;28;20097;-69
2022/01/03 04:23:42;;;;;;;35.83;5.32;;;8.00;99.90;;;;;;5047857;28;20128;-66
2022/01/03 04:26:08;;;;;;;43.03;6.00;;;8.20;99.90;;;;;;5047010;28;20084;-67
2022/01/03 04:28:34;;;;;;;46.10;5.13;;;8.10;99.90;;;;;;5049126;28;20077;-68
2022/01/03 04:30:59;;;;;;;33.88;4.88;;;8.10;99.90;;;;;;5047759;28;20041;-69
2022/01/03 04:33:25;;;;;;;36.40;5.25;;;8.10;99.90;;;;;;5049371;28;20037;-68
2022/01/03 04:35:51;;;;;;;37.67;5.60;;;8.10;99.90;;;;;;5047886;28;20064;-68
2022/01/03 04:38:18;;;;;;;32.95;5.78;;;8.10;99.90;;;;;;5046430;28;20072;-68
2022/01/03 04:40:44;;;;;;;44.80;5.68;;;8.10;99.90;;;;;;5050282;28;20487;-67
2022/01/03 04:43:09;;;;;;;33.53;5.07;;;8.10;99.90;;;;;;5052131;28;20144;-67
2022/01/03 04:45:35;;;;;;;28.67;5.30;;;8.10;99.90;;;;;;5052568;28;20392;-66
2022/01/03 04:48:00;;;;;;;31.83;4.97;;;8.10;99.90;;;;;;5049907;28;20048;-67
2022/01/03 04:50:26;;;;;;;35.20;5.05;;;8.10;99.90;;;;;;5049909;28;20098;-67
2022/01/03 04:52:52;;;;;;;45.60;5.82;;;8.10;99.90;;;;;;5052498;28;20055;-67
2022/01/03 04:55:17;;;;;;;28.95;4.78;;;8.10;99.90;;;;;;5047947;28;20037;-67
2022/01/03 04:57:43;;;;;;;21.02;4.57;;;8.10;99.90;;;;;;5048480;28;20037;-67
2022/01/03 05:00:09;;;;;;;39.15;6.13;;;8.10;99.90;;;;;;5051077;28;20053;-68
2022/01/03 05:02:37;;;;;;;35.05;5.80;;;8.10;99.90;;;;;;5050859;28;20098;-67
2022/01/03 05:05:04;;;;;;;27.33;5.10;;;8.10;99.90;;;;;;5051008;28;20033;-68
2022/01/03 05:07:29;;;;;;;49.38;5.90;;;8.10;99.90;;;;;;5049046;28;20045;-67
2022/01/03 05:09:55;;;;;;;35.50;5.00;;;8.10;99.90;;;;;;5048217;28;20114;-67
2022/01/03 05:12:21;;;;;;;39.10;5.00;;;8.20;99.90;;;;;;5051114;28;20130;-67
2022/01/03 05:14:47;;;;;;;34.92;5.55;;;8.10;99.90;;;;;;5051965;28;20497;-67
2022/01/03 05:17:12;;;;;;;42.38;6.00;;;8.10;99.90;;;;;;5051432;28;20079;-67
2022/01/03 05:19:38;;;;;;;38.50;4.78;;;8.10;99.90;;;;;;5051411;28;20319;-67
2022/01/03 05:22:05;;;;;;;40.30;5.47;;;8.10;99.90;;;;;;5047438;28;20036;-67
2022/01/03 05:24:34;;;;;;;41.75;5.57;;;8.10;99.90;;;;;;5047668;28;20044;-67
2022/01/03 05:27:02;;;;;;;40.28;6.22;;;8.10;99.90;;;;;;5050988;28;20047;-68
2022/01/03 05:29:30;;;;;;;31.08;5.32;;;8.10;99.90;;;;;;5047576;28;20128;-67
2022/01/03 05:31:56;;;;;;;31.40;4.85;;;8.10;99.90;;;;;;5048967;28;20033;-67
2022/01/03 05:34:22;;;;;;;40.67;7.13;;;8.20;99.90;;;;;;5064561;28;20044;-67
2022/01/03 05:36:47;;;;;;;40.80;5.45;;;8.20;99.90;;;;;;5045648;28;20125;-67
2022/01/03 05:39:14;;;;;;;41.92;6.07;;;8.20;99.90;;;;;;5045582;28;20047;-67
2022/01/03 05:41:41;;;;;;;40.90;6.88;;;8.10;99.90;;;;;;5050695;28;20548;-66
2022/01/03 05:44:07;;;;;;;41.33;6.40;;;8.20;99.90;;;;;;5048014;28;20137;-66
2022/01/03 05:46:33;;;;;;;44.78;6.30;;;8.10;99.90;;;;;;5046651;28;20049;-67
2022/01/03 05:48:59;;;;;;;40.83;6.63;;;8.10;99.90;;;;;;5049054;28;20040;-67
2022/01/03 05:51:25;;;;;;;34.58;6.30;;;8.10;99.90;;;;;;5047324;28;20090;-67
2022/01/03 05:53:51;;;;;;;40.58;5.88;;;8.00;99.90;;;;;;5049620;28;20138;-67
2022/01/03 05:56:17;;;;;;;35.25;5.72;;;8.10;99.90;;;;;;5049180;28;20053;-67
2022/01/03 05:58:43;;;;;;;42.97;5.68;;;8.10;99.90;;;;;;5049932;28;20063;-67
2022/01/03 06:01:09;;;;;;;45.53;5.60;;;8.10;99.90;;;;;;5048838;28;20067;-67
2022/01/03 06:03:38;;;;;;;42.70;6.45;;;8.10;99.90;;;;;;5049862;28;20480;-68
2022/01/03 06:06:18;;;;;;;44.92;6.68;;;8.10;99.90;;;;;;5049992;28;20048;-68
2022/01/03 06:08:43;;;;;;;37.70;5.30;;;8.10;99.90;;;;;;5048982;28;20048;-66
2022/01/03 06:11:09;;;;;;;45.67;6.55;;;8.10;99.90;;;;;;5048285;28;20115;-67
2022/01/03 06:13:35;;;;;;;38.55;6.07;;;8.20;99.90;;;;;;5049316;28;20041;-67
2022/01/03 06:16:00;;;;;;;41.42;6.20;;;8.10;99.90;;;;;;5047172;28;20114;-67
2022/01/03 06:18:26;;;;;;;35.63;5.35;;;8.10;99.90;;;;;;5048420;28;20036;-68
2022/01/03 06:20:52;;;;;;;41.47;6.18;;;8.10;99.90;;;;;;5046984;28;20045;-67
2022/01/03 06:23:19;;;;;;;39.03;6.20;;;8.10;99.90;;;;;;5031082;28;20041;-67
2022/01/03 06:25:46;;;;;;;46.13;7.80;;;8.10;99.90;;;;;;5050280;28;20053;-67
2022/01/03 06:28:12;;;;;;;43.53;6.55;;;8.10;99.90;;;;;;5049145;28;20129;-68
2022/01/03 06:30:40;;;;;;;36.45;5.80;;;8.10;99.90;;;;;;5050206;28;20047;-68
2022/01/03 06:33:07;;;;;;;51.47;6.78;;;8.10;99.90;;;;;;5048767;28;20110;-68
2022/01/03 06:35:33;;;;;;;41.42;5.43;;;8.10;99.90;;;;;;5044596;28;20109;-68
2022/01/03 06:38:00;;;;;;;36.08;6.45;;;8.10;99.90;;;;;;5050118;28;20100;-68
2022/01/03 06:40:26;;;;;;;43.03;5.55;;;8.30;99.90;;;;;;5051963;28;20057;-68
2022/01/03 06:42:52;;;;;;;50.10;5.93;;;8.20;99.90;;;;;;5051516;28;20056;-68
2022/01/03 06:45:18;;;;;;;44.90;6.75;;;8.20;99.90;;;;;;5049902;28;20108;-68
2022/01/03 06:47:44;;;;;;;42.67;7.15;;;8.20;99.90;;;;;;5049752;28;20129;-67
2022/01/03 06:50:10;;;;;;;40.97;6.45;;;8.20;99.90;;;;;;5049712;28;20114;-67
2022/01/03 06:52:36;;;;;;;39.45;5.55;;;8.30;99.90;;;;;;5049951;28;20126;-68
2022/01/03 06:55:03;;;;;;;44.80;6.22;;;8.20;99.90;;;;;;5049832;28;20040;-67
2022/01/03 06:57:29;;;;;;;42.42;6.53;;;8.20;99.90;;;;;;5048734;28;20048;-67
2022/01/03 06:59:55;;;;;;;44.08;6.03;;;8.20;99.90;;;;;;5048552;28;20033;-68
2022/01/03 07:02:21;;;;;;;44.05;6.18;;;8.10;99.90;;;;;;5064763;28;20052;-68
2022/01/03 07:04:47;;;;;;;41.75;6.40;;;8.10;99.90;;;;;;5049747;28;20360;-67
2022/01/03 07:07:13;;;;;;;43.13;6.18;;;8.10;99.90;;;;;;5049277;28;20052;-68
2022/01/03 07:09:39;;;;;;;46.95;6.57;;;8.10;99.90;;;;;;5061788;28;20106;-68
2022/01/03 07:12:05;;;;;;;37.25;5.75;;;8.10;99.90;;;;;;5065057;28;20094;-68
2022/01/03 07:19:47;;;;;;;40.80;5.63;;;8.10;99.90;;;;;;5049251;28;20478;-68
2022/01/03 07:22:13;;;;;;;45.28;6.55;;;8.20;99.90;;;;;;5049055;28;20048;-69
2022/01/03 07:24:40;;;;;;;45.55;6.18;;;8.10;99.90;;;;;;5047470;28;20041;-68
2022/01/03 07:27:08;;;;;;;47.65;6.50;;;8.10;99.90;;;;;;5048974;28;20049;-68
2022/01/03 07:29:34;;;;;;;43.63;6.75;;;8.20;99.90;;;;;;5047457;28;20124;-69
2022/01/03 07:32:00;;;;;;;36.95;5.45;;;8.10;99.90;;;;;;5048515;28;20175;-68
2022/01/03 07:34:26;;;;;;;40.00;6.28;;;8.20;99.90;;;;;;5049509;28;20056;-67
2022/01/03 07:36:52;;;;;;;37.67;6.03;;;8.30;99.90;;;;;;5049731;28;20036;-67
2022/01/03 07:39:18;;;;;;;35.70;4.93;;;8.20;99.90;;;;;;5049034;28;20040;-68
2022/01/03 07:41:44;;;;;;;43.78;5.90;;;8.20;99.90;;;;;;5049117;28;20041;-67
2022/01/03 07:44:10;;;;;;;43.05;5.80;;;8.30;99.90;;;;;;5049116;28;20049;-68
2022/01/03 07:46:36;;;;;;;41.80;5.95;;;8.30;99.90;;;;;;5048055;28;20049;-68
2022/01/03 07:49:02;;;;;;;48.47;6.45;;;8.30;99.90;;;;;;5049550;28;20063;-68
2022/01/03 07:51:28;;;;;;;47.78;6.60;;;8.30;99.90;;;;;;5047490;28;20072;-68
2022/01/03 07:53:54;;;;;;;47.28;5.88;;;8.40;99.90;;;;;;5049092;28;20056;-69
2022/01/03 07:56:20;;;;;;;43.05;6.40;;;8.30;99.90;;;;;;5049244;28;20525;-66
2022/01/03 07:58:46;;;;;;;43.92;6.50;;;8.40;99.90;;;;;;5049294;28;20055;-67
2022/01/03 08:01:12;;;;;;;48.22;6.93;;;8.30;99.90;;;;;;5048241;28;20041;-68
2022/01/03 08:03:38;;;;;;;38.25;5.80;;;8.30;99.90;;;;;;5047357;28;20440;-67
2022/01/03 08:06:05;;;;;;;44.60;6.60;;;8.40;99.90;;;;;;5047949;28;20028;-67
2022/01/03 08:08:31;;;;;;;48.45;5.97;;;8.30;99.90;;;;;;5035731;28;20077;-67
2022/01/03 08:10:56;;;;;;;40.95;5.57;;;8.40;99.90;;;;;;5045619;28;20503;-68
2022/01/03 08:13:22;;;;;;;42.83;6.07;;;8.40;99.90;;;;;;5029789;28;20530;-68
2022/01/03 08:15:48;;;;;;;36.65;6.15;;;8.40;99.90;;;;;;5051086;28;20037;-67
2022/01/03 08:18:13;;;;;;;49.80;6.70;;;8.40;99.90;;;;;;5049393;28;20106;-67
2022/01/03 08:20:41;;;;;;;41.17;5.95;;;8.40;99.90;;;;;;5052812;28;20444;-67
2022/01/03 08:23:07;;;;;;;42.90;6.57;;;8.50;99.90;;;;;;5054826;28;20090;-67
2022/01/03 08:25:37;;;;;;;44.35;6.47;;;8.40;99.90;;;;;;5048209;28;20304;-68
2022/01/03 08:28:05;;;;;;;43.03;6.40;;;8.80;99.90;;;;;;5042941;28;20040;-68
2022/01/03 08:30:31;;;;;;;;;;;8.60;99.90;;;;;;5052488;28;20171;-68
2022/01/03 08:32:56;;;;;;;37.53;6.35;;;8.60;99.90;;;;;;5028885;28;20023;-68
2022/01/03 08:35:24;;;;;;;33.78;4.82;;;8.60;99.90;;;;;;5059776;28;20175;-67
2022/01/03 08:37:50;;;;;;;38.43;6.43;;;8.70;99.90;;;;;;5049907;28;20534;-68
2022/01/03 08:40:16;;;;;;;46.80;6.45;;;8.70;99.90;;;;;;5040940;28;20300;-68
2022/01/03 08:42:41;;;;;;;44.85;5.82;;;8.70;99.90;;;;;;5051729;28;20041;-67
2022/01/03 08:45:07;;;;;;;41.45;5.60;;;8.70;99.90;;;;;;5052268;28;20037;-68
2022/01/03 08:47:33;;;;;;;38.50;5.38;;;8.80;99.90;;;;;;5052285;28;20045;-68
2022/01/03 08:49:59;;;;;;;51.30;6.68;;;8.80;99.90;;;;;;5051567;28;20103;-67
2022/01/03 08:52:25;;;;;;;45.67;6.53;;;8.80;99.90;;;;;;5032805;28;20479;-68
2022/01/03 08:54:50;;;;;;;39.08;6.00;;;8.80;99.90;;;;;;5051658;28;20041;-68
2022/01/03 08:57:16;;;;;;;40.70;6.10;;;8.80;99.90;;;;;;5052625;28;20048;-68
2022/01/03 08:59:42;;;;;;;50.20;6.97;;;8.80;99.90;;;;;;5047147;28;20254;-68
2022/01/03 09:02:08;;;;;;;36.90;5.07;;;8.80;99.90;;;;;;5050986;28;20037;-69
2022/01/03 09:04:33;;;;;;;42.28;6.90;;;8.90;99.90;;;;;;5051888;28;20033;-69
2022/01/03 09:06:59;;;;;;;42.90;6.65;;;8.80;99.90;;;;;;5053526;28;20045;-68
2022/01/03 09:09:27;;;;;;;35.13;5.07;;;8.80;99.90;;;;;;5053038;28;20171;-68
2022/01/03 09:11:53;;;;;;;42.65;6.32;;;8.90;99.90;;;;;;5053816;28;20414;-67
2022/01/03 09:14:19;;;;;;;38.63;5.22;;;8.90;99.90;;;;;;5067570;28;20059;-69
2022/01/03 09:16:45;;;;;;;40.75;6.18;;;8.90;99.90;;;;;;5050466;28;20433;-69
2022/01/03 09:19:11;;;;;;;38.33;5.10;;;9.00;99.90;;;;;;5052288;28;20049;-69
2022/01/03 09:21:36;;;;;;;29.80;5.45;;;8.90;99.90;;;;;;5049241;28;20052;-68
2022/01/03 09:24:28;;;;;;;30.27;4.97;;;9.00;99.90;;;;;;5049404;28;20044;-68
2022/01/03 09:29:36;;;;;;;43.28;6.45;;;9.10;99.90;;;;;;5050732;28;20140;-68
2022/01/03 09:32:02;;;;;;;47.90;6.22;;;9.10;99.90;;;;;;5052825;28;20124;-68
2022/01/03 09:34:28;;;;;;;35.08;5.93;;;9.10;99.90;;;;;;5040526;28;21648;-68
2022/01/03 09:36:54;;;;;;;32.45;5.43;;;9.10;99.90;;;;;;5051689;28;20045;-67
2022/01/03 09:39:19;;;;;;;42.15;6.07;;;9.10;99.90;;;;;;5050018;28;20037;-69
2022/01/03 09:41:57;;;;;;;39.10;5.45;;;9.20;99.90;;;;;;5047480;28;20041;-69
2022/01/03 09:44:28;;;;;;;37.03;5.15;;;9.20;99.90;;;;;;5049793;28;20098;-68
2022/01/03 09:46:55;;;;;;;29.83;4.97;;;9.20;99.90;;;;;;5032955;28;20056;-68
2022/01/03 09:49:22;;;;;;;39.97;6.43;;;9.20;99.90;;;;;;5050616;28;20068;-68
2022/01/03 09:51:48;;;;;;;37.30;5.18;;;9.30;99.90;;;;;;5045572;28;20060;-68
2022/01/03 09:54:19;;;;;;;43.40;5.65;;;9.20;99.90;;;;;;5043185;28;20045;-68
2022/01/03 09:56:45;;;;;;;42.67;6.38;;;9.20;99.90;;;;;;5053546;28;20045;-67
2022/01/03 09:59:12;;;;;;;50.10;7.72;;;9.20;99.90;;;;;;5051400;28;20410;-67
2022/01/03 10:01:37;;;;;;;48.25;6.93;;;9.20;99.90;;;;;;5045857;28;20090;-67
2022/01/03 10:04:04;;;;;;;37.28;5.43;;;9.30;99.90;;;;;;5048948;28;20053;-69
2022/01/03 10:06:31;;;;;;;33.05;5.72;;;9.30;99.90;;;;;;5050676;28;20040;-67
2022/01/03 10:08:57;;;;;;;39.90;5.85;;;9.20;99.90;;;;;;5050984;28;20200;-68
2022/01/03 10:11:23;;;;;;;38.25;6.22;;;9.30;99.90;;;;;;5050612;28;20099;-67
2022/01/03 10:13:51;;;;;;;37.60;5.97;;;9.40;99.90;;;;;;5051352;28;20041;-67
2022/01/03 10:16:18;;;;;;;32.38;5.78;;;9.30;99.90;;;;;;5052071;28;20163;-68
2022/01/03 10:18:48;;;;;;;44.35;6.35;;;9.30;99.90;;;;;;5049990;28;20041;-68
2022/01/03 10:21:41;;;;;;;36.53;5.32;;;9.40;99.90;;;;;;5051688;28;20041;-67
2022/01/03 10:24:08;;;;;;;42.60;6.15;;;9.40;99.90;;;;;;5049437;28;20059;-67
2022/01/03 10:26:37;;;;;;;41.40;6.57;;;9.50;99.90;;;;;;5050701;28;20495;-66
2022/01/03 10:29:13;;;;;;;38.25;6.30;;;9.50;99.90;;;;;;5050448;28;20495;-67
2022/01/03 10:31:40;;;;;;;32.50;5.00;;;9.50;99.90;;;;;;5037836;28;20076;-66
2022/01/03 10:34:09;;;;;;;29.83;5.43;;;9.50;99.90;;;;;;5052042;28;20112;-68
2022/01/03 10:36:37;;;;;;;34.92;5.88;;;9.50;99.90;;;;;;5050327;28;20052;-67
2022/01/03 10:39:28;;;;;;;43.08;5.97;;;9.50;99.90;;;;;;5047062;28;20400;-66
2022/01/03 10:42:16;;;;;;;39.60;5.80;;;9.60;99.90;;;;;;5043124;28;20048;-67
2022/01/03 10:44:42;;;;;;;30.63;5.47;;;9.60;99.90;;;;;;5047681;28;20501;-67
2022/01/03 10:47:10;;;;;;;41.97;6.38;;;9.70;99.90;;;;;;5053254;28;20041;-67
2022/01/03 10:49:38;;;;;;;32.33;5.25;;;9.80;99.90;;;;;;5049540;28;20136;-68
2022/01/03 10:52:20;;;;;;;30.42;5.10;;;9.80;99.90;;;;;;5063642;28;20047;-68
2022/01/03 10:55:09;;;;;;;26.20;4.75;;;9.70;99.90;;;;;;5049435;28;20059;-68
2022/01/03 10:57:53;;;;;;;29.10;4.97;;;9.70;99.90;;;;;;5047249;28;20494;-68
2022/01/03 11:00:24;;;;;;;38.88;5.85;;;9.70;99.90;;;;;;5047817;28;20057;-68
2022/01/03 11:05:53;;;;;;;33.17;5.38;;;9.70;99.90;;;;;;5043859;28;20053;-67
2022/01/03 11:11:08;;;;;;;33.47;4.30;;;9.70;99.90;;;;;;5051381;28;20059;-67
2022/01/03 11:13:41;;;;;;;25.67;4.73;;;9.80;99.90;;;;;;5050540;28;20052;-67
2022/01/03 11:16:09;;;;;;;34.05;5.72;;;9.70;99.90;;;;;;5057708;28;20130;-67
2022/01/03 11:18:38;;;;;;;28.95;4.93;;;9.80;99.90;;;;;;5059536;28;20076;-67
2022/01/03 11:21:11;;;;;;;28.58;5.82;;;9.70;99.90;;;;;;5048380;28;20049;-67
2022/01/03 11:23:39;;;;;;;35.15;5.53;;;9.70;99.90;;;;;;5044588;28;20368;-67
2022/01/03 11:26:07;;;;;;;30.42;5.13;;;9.80;99.90;;;;;;5048310;28;20052;-67
2022/01/03 11:28:33;;;;;;;;;;;9.70;99.90;;;;;;5048246;28;20136;-68
2022/01/03 11:31:00;;;;;;;26.80;4.43;;;9.80;99.90;;;;;;5047352;28;20003;-68
2022/01/03 11:33:26;;;;;;;24.65;4.57;;;9.70;99.90;;;;;;5051095;28;20384;-67
2022/01/03 11:35:52;;;;;;;38.38;6.22;;;9.70;99.90;;;;;;5048102;28;20059;-67
2022/01/03 11:38:23;;;;;;;25.25;4.68;;;9.70;99.90;;;;;;5048944;28;20037;-67
2022/01/03 11:40:49;;;;;;;32.67;4.80;;;9.70;99.90;;;;;;5047145;28;20367;-67
2022/01/03 11:43:16;;;;;;;38.80;5.32;;;9.70;99.90;;;;;;5050291;28;20105;-67
2022/01/03 11:45:42;;;;;;;30.52;5.10;;;9.70;99.90;;;;;;5042484;28;20488;-69
2022/01/03 11:48:10;;;;;;;29.23;4.95;;;9.70;99.90;;;;;;5046706;28;20044;-68
2022/01/03 11:50:37;;;;;;;28.73;4.85;;;9.80;99.90;;;;;;5049874;28;20415;-68
2022/01/03 11:53:05;;;;;;;35.83;5.97;;;9.80;99.90;;;;;;5053740;28;20049;-69
2022/01/03 11:55:33;;;;;;;38.17;5.25;;;9.90;99.90;;;;;;5053319;28;20489;-68
2022/01/03 12:06:04;;;;;;;34.80;5.43;;;10.00;99.90;;;;;;5060724;28;20045;-68
2022/01/03 12:08:38;;;;;;;31.15;5.35;;;10.00;99.90;;;;;;5047794;28;20124;-68
2022/01/03 12:11:21;;;;;;;37.72;5.43;;;10.00;99.90;;;;;;5047703;28;20045;-69
2022/01/03 12:13:55;;;;;;;38.65;6.22;;;10.00;99.90;;;;;;5071980;28;20056;-68
2022/01/03 12:16:38;;;;;;;30.52;5.28;;;10.00;99.90;;;;;;5053922;28;20072;-67
2022/01/03 12:19:07;;;;;;;21.38;4.10;;;10.00;99.90;;;;;;5053643;28;20041;-68
2022/01/03 12:21:53;;;;;;;26.33;5.30;;;10.00;99.90;;;;;;5052904;28;20041;-68
2022/01/03 12:24:40;;;;;;;25.23;4.97;;;10.00;99.90;;;;;;5053461;28;20044;-67
2022/01/03 12:27:15;;;;;;;32.03;6.00;;;10.00;99.90;;;;;;5052416;28;20045;-68
2022/01/03 12:29:56;;;;;;;27.52;4.65;;;10.00;99.90;;;;;;5051134;28;20041;-68
2022/01/03 12:32:42;;;;;;;32.85;5.55;;;9.90;99.90;;;;;;5069943;28;20076;-67
2022/01/03 12:35:11;;;;;;;33.95;4.97;;;9.90;99.90;;;;;;5052777;28;20096;-67
2022/01/03 12:37:43;;;;;;;32.70;5.25;;;9.90;99.90;;;;;;5050051;28;20084;-68
2022/01/03 12:40:15;;;;;;;29.17;5.10;;;9.80;99.90;;;;;;5028162;28;20044;-69
2022/01/03 12:42:53;;;;;;;29.27;5.45;;;9.90;99.90;;;;;;5044673;28;20494;-67
2022/01/03 12:45:34;;;;;;;35.35;5.25;;;9.90;99.90;;;;;;5051688;28;20049;-68
2022/01/03 12:48:12;;;;;;;28.15;4.88;;;10.00;99.90;;;;;;5054053;28;20053;-68
2022/01/03 12:50:40;;;;;;;35.65;6.53;;;10.00;99.90;;;;;;5043396;28;20038;-68
2022/01/03 12:53:26;;;;;;;;;;;10.10;99.90;;;;;;5052496;28;21690;-67
2022/01/03 12:56:05;;;;;;;39.13;6.05;;;10.10;99.90;;;;;;5029057;28;19921;-68
2022/01/03 12:58:30;;;;;;;26.77;4.85;;;10.10;99.90;;;;;;5059562;28;20183;-68
2022/01/03 13:01:06;;;;;;;32.95;6.05;;;10.10;99.90;;;;;;5051158;28;20535;-68
2022/01/03 13:03:43;;;;;;;31.13;5.15;;;10.20;99.90;;;;;;5050622;28;20498;-67
2022/01/03 13:06:21;;;;;;;26.55;5.32;;;10.10;99.90;;;;;;5048950;28;20041;-68
2022/01/03 13:08:56;;;;;;;35.85;5.53;;;10.10;99.90;;;;;;5049722;28;20097;-68
2022/01/03 13:11:48;;;;;;;34.70;5.22;;;10.00;99.90;;;;;;5064387;28;20049;-68
2022/01/03 13:14:15;;;;;;;37.95;4.95;;;10.00;99.90;;;;;;5047128;28;20045;-68
2022/01/03 13:16:51;;;;;;;24.50;5.17;;;10.10;99.90;;;;;;5051185;28;20052;-69
2022/01/03 13:19:35;;;;;;;26.08;5.43;;;10.00;99.90;;;;;;5050996;28;20049;-69